Time;durP1;ratioP1;P1;durP2;ratioP2;P2;SDS_P1;SDS_P2;PMS_P1;PMS_P2;Temp;Humidity;BMP_temperature;BMP_pressure;BME280_temperature;BME280_humidity;BME280_pressure;Samples;Min_cycle;Max_cycle;Signal;HPM_P1;HPM_P2
2022/12/27 00:02:14;;;;;;;15.50;3.63;;;4.10;99.90;;;;;;6187029;23;20071;-82
2022/12/27 00:04:39;;;;;;;15.75;3.05;;;4.10;99.90;;;;;;6185485;23;20028;-82
2022/12/27 00:07:05;;;;;;;7.65;3.63;;;4.10;99.90;;;;;;6212029;23;20138;-83
2022/12/27 00:09:31;;;;;;;16.83;3.42;;;4.10;99.90;;;;;;6184518;23;20013;-84
2022/12/27 00:11:56;;;;;;;12.88;4.53;;;4.10;99.90;;;;;;6211776;23;20054;-84
2022/12/27 00:14:22;;;;;;;15.10;3.05;;;4.10;99.90;;;;;;6185418;23;20172;-82
2022/12/27 00:16:48;;;;;;;11.90;3.08;;;4.10;99.90;;;;;;6185418;23;20012;-83
2022/12/27 00:19:13;;;;;;;9.35;3.08;;;4.10;99.90;;;;;;6211841;23;20000;-84
2022/12/27 00:21:39;;;;;;;11.07;2.80;;;4.10;99.90;;;;;;6212240;23;20042;-83
2022/12/27 00:24:05;;;;;;;8.18;3.20;;;4.10;99.90;;;;;;6185469;23;20001;-83
2022/12/27 00:26:32;;;;;;;17.42;3.80;;;4.00;99.90;;;;;;6184773;23;20005;-84
2022/12/27 00:28:58;;;;;;;12.60;2.83;;;4.00;99.90;;;;;;6211943;23;20020;-84
2022/12/27 00:31:27;;;;;;;11.85;3.17;;;4.00;99.90;;;;;;6184230;23;20001;-84
2022/12/27 00:33:54;;;;;;;15.20;3.85;;;4.00;99.90;;;;;;6184889;23;20001;-84
2022/12/27 00:36:22;;;;;;;17.08;3.22;;;4.00;99.90;;;;;;6184999;23;20011;-84
2022/12/27 00:38:48;;;;;;;11.20;3.30;;;3.90;99.90;;;;;;6184952;23;20043;-84
2022/12/27 00:41:14;;;;;;;13.00;3.30;;;3.90;99.90;;;;;;6210473;23;20339;-83
2022/12/27 00:43:40;;;;;;;11.93;3.50;;;3.90;99.90;;;;;;6211417;23;20007;-83
2022/12/27 00:46:06;;;;;;;10.77;3.65;;;3.90;99.90;;;;;;6184769;23;20000;-83
2022/12/27 00:48:32;;;;;;;17.08;2.78;;;3.90;99.90;;;;;;6211336;23;20011;-83
2022/12/27 00:51:00;;;;;;;11.73;3.00;;;3.90;99.90;;;;;;6184355;23;20001;-83
2022/12/27 00:53:27;;;;;;;16.98;3.88;;;3.90;99.90;;;;;;6211318;23;20043;-83
2022/12/27 00:55:53;;;;;;;10.93;3.17;;;3.90;99.90;;;;;;6211030;23;20012;-84
2022/12/27 00:58:18;;;;;;;12.95;3.85;;;3.90;99.90;;;;;;6210445;23;20008;-83
2022/12/27 01:00:44;;;;;;;10.27;3.22;;;3.90;99.90;;;;;;6184164;23;20050;-83
2022/12/27 01:03:09;;;;;;;8.43;3.05;;;3.90;99.90;;;;;;6184830;23;20008;-83
2022/12/27 01:05:36;;;;;;;4.20;2.05;;;3.90;99.90;;;;;;6184931;23;20012;-84
2022/12/27 01:08:03;;;;;;;11.57;2.95;;;3.90;99.90;;;;;;6211353;23;20001;-83
2022/12/27 01:10:29;;;;;;;6.70;3.45;;;4.00;99.90;;;;;;6184149;23;20039;-83
2022/12/27 01:12:54;;;;;;;9.00;2.50;;;3.90;99.90;;;;;;6210699;23;20451;-82
2022/12/27 01:15:20;;;;;;;9.13;2.28;;;4.00;99.90;;;;;;6184749;23;20005;-82
2022/12/27 01:17:45;;;;;;;8.38;2.42;;;4.00;99.90;;;;;;6211497;23;20313;-82
2022/12/27 01:20:11;;;;;;;7.95;2.75;;;3.90;99.90;;;;;;6184333;23;20345;-82
2022/12/27 01:22:37;;;;;;;7.50;2.53;;;3.90;99.90;;;;;;6184759;23;20004;-83
2022/12/27 01:25:03;;;;;;;11.55;4.18;;;3.90;99.90;;;;;;6184982;23;20521;-83
2022/12/27 01:27:29;;;;;;;10.63;2.50;;;4.00;99.90;;;;;;6183609;23;20004;-84
2022/12/27 01:29:54;;;;;;;11.30;2.65;;;3.90;99.90;;;;;;6184190;23;20001;-83
2022/12/27 01:32:20;;;;;;;6.32;2.75;;;3.90;99.90;;;;;;6211597;23;20001;-83
2022/12/27 01:34:45;;;;;;;10.82;3.35;;;3.90;99.90;;;;;;6211558;23;20015;-83
2022/12/27 01:37:11;;;;;;;7.05;2.40;;;3.90;99.90;;;;;;6184747;23;20005;-83
2022/12/27 01:39:36;;;;;;;13.10;3.38;;;3.90;99.90;;;;;;6184043;23;20004;-83
2022/12/27 01:44:53;;;;;;;10.43;3.60;;;3.90;99.90;;;;;;6213227;23;20055;-83
2022/12/27 01:47:40;;;;;;;11.55;3.33;;;3.90;99.90;;;;;;6213626;23;20020;-83
2022/12/27 01:50:27;;;;;;;14.68;4.53;;;3.90;99.90;;;;;;6186500;23;20009;-83
2022/12/27 01:53:19;;;;;;;9.32;3.35;;;3.90;99.90;;;;;;6187286;23;20032;-83
2022/12/27 01:55:59;;;;;;;10.88;3.90;;;3.90;99.90;;;;;;6186696;23;20005;-83
2022/12/27 01:58:44;;;;;;;12.40;4.40;;;3.80;99.90;;;;;;6213538;23;20261;-83
2022/12/27 02:01:18;;;;;;;16.52;3.88;;;3.90;99.90;;;;;;6186302;23;20107;-83
2022/12/27 02:03:54;;;;;;;13.50;3.70;;;3.90;99.90;;;;;;6192661;23;20005;-82
2022/12/27 02:06:22;;;;;;;16.33;3.88;;;4.00;99.90;;;;;;6192261;23;19996;-83
2022/12/27 02:08:55;;;;;;;11.63;4.03;;;4.10;99.90;;;;;;6190971;23;20001;-83
2022/12/27 02:14:12;;;;;;;19.23;4.15;;;4.00;99.90;;;;;;6217190;23;20344;-83
2022/12/27 02:16:38;;;;;;;15.48;4.70;;;4.00;99.90;;;;;;6188060;23;20008;-81
2022/12/27 02:19:21;;;;;;;8.52;3.95;;;4.00;99.90;;;;;;6188454;23;20011;-82
2022/12/27 02:22:06;;;;;;;13.52;4.10;;;4.10;99.90;;;;;;6190918;23;20005;-84
2022/12/27 02:24:34;;;;;;;12.70;4.22;;;4.10;99.90;;;;;;6222003;23;20001;-85
2022/12/27 02:27:12;;;;;;;14.95;4.35;;;4.10;99.90;;;;;;6194844;23;20001;-84
2022/12/27 02:29:43;;;;;;;12.93;4.85;;;4.00;99.90;;;;;;6194919;23;20015;-84
2022/12/27 02:32:39;;;;;;;13.32;4.57;;;4.00;99.90;;;;;;6196703;23;20043;-85
2022/12/27 02:35:13;;;;;;;12.20;4.38;;;4.00;99.90;;;;;;6215297;23;20055;-83
2022/12/27 02:37:51;;;;;;;13.65;4.53;;;4.00;99.90;;;;;;6197863;23;20011;-86
2022/12/27 02:55:24;;;;;;;12.70;4.95;;;4.00;99.90;;;;;;6218003;23;20056;-83
2022/12/27 02:58:08;;;;;;;12.50;5.35;;;4.00;99.90;;;;;;6136259;23;20088;-84
2022/12/27 03:04:09;;;;;;;18.30;4.20;;;4.10;99.90;;;;;;6142738;23;20027;-84
2022/12/27 03:07:07;;;;;;;12.20;4.28;;;4.10;99.90;;;;;;6192729;23;20440;-84
2022/12/27 03:15:55;;;;;;;12.15;4.53;;;4.10;99.90;;;;;;6217480;23;20030;-83
2022/12/27 03:18:56;;;;;;;12.13;3.92;;;4.10;99.90;;;;;;6190910;23;20343;-84
2022/12/27 03:27:30;;;;;;;11.23;4.25;;;4.10;99.90;;;;;;6063270;23;20043;-83
2022/12/27 03:33:12;;;;;;;9.00;2.90;;;4.10;99.90;;;;;;6213797;23;20059;-84
2022/12/27 03:38:42;;;;;;;12.55;3.63;;;4.20;99.90;;;;;;6167298;23;20075;-84
2022/12/27 03:43:58;;;;;;;20.38;4.35;;;4.20;99.90;;;;;;6216603;23;20012;-82
2022/12/27 03:46:34;;;;;;;7.78;3.58;;;4.30;99.90;;;;;;6190892;23;19996;-83
2022/12/27 03:49:32;;;;;;;12.23;3.88;;;4.20;99.90;;;;;;6190642;23;20005;-83
2022/12/27 03:52:20;;;;;;;16.85;3.88;;;4.20;99.90;;;;;;6192064;23;20059;-83
2022/12/27 03:54:48;;;;;;;10.55;3.20;;;4.20;99.90;;;;;;6194383;23;20018;-83
2022/12/27 03:57:25;;;;;;;8.82;3.10;;;4.30;99.90;;;;;;6216618;23;20040;-83
2022/12/27 03:59:51;;;;;;;14.32;3.42;;;4.30;99.90;;;;;;6215477;23;20000;-83
2022/12/27 04:02:17;;;;;;;12.65;3.00;;;4.30;99.90;;;;;;6216955;23;20006;-83
2022/12/27 04:04:43;;;;;;;18.33;3.72;;;4.30;99.90;;;;;;6217203;23;20217;-83
2022/12/27 04:07:13;;;;;;;19.27;3.35;;;4.30;99.90;;;;;;6189120;23;20091;-82
2022/12/27 04:37:02;;;;;;;9.35;3.40;;;4.20;99.90;;;;;;6221562;23;20015;-85
2022/12/27 04:39:28;;;;;;;13.82;3.50;;;4.20;99.90;;;;;;6194261;23;20050;-84
2022/12/27 04:55:57;;;;;;;18.90;3.75;;;4.20;99.90;;;;;;6225130;23;20065;-84
2022/12/27 04:58:23;;;;;;;12.38;3.85;;;4.30;99.90;;;;;;6188676;23;20004;-82
2022/12/27 05:03:33;;;;;;;12.00;3.75;;;4.30;99.90;;;;;;6223110;23;20011;-84
2022/12/27 05:06:00;;;;;;;16.23;3.75;;;4.30;99.90;;;;;;6196098;23;20028;-84
2022/12/27 05:14:01;;;;;;;12.18;3.30;;;4.40;99.90;;;;;;6219310;23;20019;-83
2022/12/27 05:16:35;;;;;;;8.52;3.60;;;4.30;99.90;;;;;;6220259;23;20001;-85
2022/12/27 05:19:02;;;;;;;12.38;5.38;;;4.40;99.90;;;;;;6193502;23;20009;-84
2022/12/27 05:21:27;;;;;;;7.97;3.42;;;4.40;99.90;;;;;;6188560;23;20005;-85
2022/12/27 05:26:41;;;;;;;13.70;3.13;;;4.40;99.90;;;;;;6221811;23;20466;-85
2022/12/27 05:29:07;;;;;;;9.50;3.95;;;4.40;99.90;;;;;;6196548;23;20011;-85
2022/12/27 05:31:36;;;;;;;18.70;4.45;;;4.40;99.90;;;;;;6195201;23;20091;-85
2022/12/27 05:34:01;;;;;;;10.38;3.92;;;4.40;99.90;;;;;;6195145;23;20013;-85
2022/12/27 05:36:28;;;;;;;13.30;4.38;;;4.50;99.90;;;;;;6194952;23;20028;-86
2022/12/27 05:38:56;;;;;;;12.05;4.95;;;4.50;99.90;;;;;;6194611;23;20004;-84
2022/12/27 05:41:25;;;;;;;13.60;4.53;;;4.60;99.90;;;;;;6193242;23;20491;-85
2022/12/27 05:43:51;;;;;;;14.20;4.50;;;4.70;99.90;;;;;;6196435;23;20397;-85
2022/12/27 05:46:24;;;;;;;11.60;4.35;;;4.70;99.90;;;;;;6195219;23;20007;-83
2022/12/27 05:48:50;;;;;;;14.23;5.10;;;4.70;99.90;;;;;;6218020;23;20077;-82
2022/12/27 05:51:18;;;;;;;19.20;5.28;;;4.80;99.90;;;;;;6187904;23;19997;-81
2022/12/27 05:53:47;;;;;;;14.80;5.78;;;4.90;99.90;;;;;;6211355;23;20036;-80
2022/12/27 05:56:18;;;;;;;12.57;4.97;;;4.90;99.90;;;;;;6185301;23;20058;-82
2022/12/27 05:58:44;;;;;;;13.27;6.22;;;4.90;99.90;;;;;;6185241;23;20008;-81
2022/12/27 06:01:13;;;;;;;13.13;5.50;;;5.00;99.90;;;;;;6187198;23;20343;-83
2022/12/27 06:03:39;;;;;;;9.85;4.63;;;5.00;99.90;;;;;;6190593;23;20088;-84
2022/12/27 06:06:06;;;;;;;13.48;5.72;;;5.00;99.90;;;;;;6189920;23;20328;-82
2022/12/27 06:08:32;;;;;;;15.20;4.82;;;5.00;99.90;;;;;;6186808;23;20028;-83
2022/12/27 06:11:13;;;;;;;13.15;4.93;;;5.00;99.90;;;;;;6189675;23;20009;-83
2022/12/27 06:13:40;;;;;;;14.50;5.70;;;5.00;99.90;;;;;;6190825;23;20012;-84
2022/12/27 06:16:08;;;;;;;19.92;5.78;;;5.00;99.90;;;;;;6216325;23;20001;-84
2022/12/27 06:18:38;;;;;;;14.27;6.32;;;5.00;99.90;;;;;;6189318;23;20008;-83
2022/12/27 06:21:15;;;;;;;14.77;5.70;;;5.00;99.90;;;;;;6191098;23;20009;-82
2022/12/27 06:23:45;;;;;;;12.07;5.20;;;5.10;99.90;;;;;;6190916;23;20518;-84
2022/12/27 06:26:13;;;;;;;;;;;5.20;99.90;;;;;;6191624;23;20011;-83
2022/12/27 06:28:39;;;;;;;15.30;5.90;;;5.20;99.90;;;;;;6218833;23;19907;-83
2022/12/27 06:31:05;;;;;;;17.35;6.75;;;5.20;99.90;;;;;;6191663;23;20001;-85
2022/12/27 06:33:31;;;;;;;15.20;6.53;;;5.20;99.90;;;;;;6193552;23;20074;-83
2022/12/27 06:35:57;;;;;;;12.55;5.40;;;5.20;99.90;;;;;;6191229;23;20376;-82
2022/12/27 06:38:23;;;;;;;12.23;6.72;;;5.30;99.90;;;;;;6189193;23;20436;-82
2022/12/27 06:40:49;;;;;;;14.07;6.30;;;5.20;99.90;;;;;;6191067;23;20012;-82
2022/12/27 06:43:14;;;;;;;11.57;5.70;;;5.30;99.90;;;;;;6190152;23;20001;-82
2022/12/27 06:45:40;;;;;;;13.07;5.85;;;5.20;99.90;;;;;;6191588;23;20011;-83
2022/12/27 06:48:06;;;;;;;15.02;6.28;;;5.30;99.90;;;;;;6190939;23;20387;-83
2022/12/27 06:50:32;;;;;;;17.42;5.82;;;5.30;99.90;;;;;;6192409;23;20001;-83
2022/12/27 06:52:58;;;;;;;10.65;5.57;;;5.30;99.90;;;;;;6216969;23;20324;-83
2022/12/27 06:55:24;;;;;;;14.43;5.43;;;5.30;99.90;;;;;;6191500;23;20004;-82
2022/12/27 06:57:50;;;;;;;14.15;5.82;;;5.30;99.90;;;;;;6186664;23;20127;-82
2022/12/27 07:00:16;;;;;;;11.48;7.50;;;5.30;99.90;;;;;;6187949;23;20001;-82
2022/12/27 07:02:42;;;;;;;13.05;5.90;;;5.30;99.90;;;;;;6190367;23;20000;-83
2022/12/27 07:05:08;;;;;;;14.23;5.80;;;5.30;99.90;;;;;;6188753;23;20015;-82
2022/12/27 07:07:34;;;;;;;17.25;5.78;;;5.30;99.90;;;;;;6188123;23;20007;-80
2022/12/27 07:10:03;;;;;;;17.75;5.80;;;5.40;99.90;;;;;;6211911;23;20030;-80
2022/12/27 07:12:32;;;;;;;16.10;6.05;;;5.30;99.90;;;;;;6185566;23;20000;-80
2022/12/27 07:14:58;;;;;;;16.33;6.13;;;5.30;99.90;;;;;;6185852;23;20004;-79
2022/12/27 07:17:26;;;;;;;14.77;5.63;;;5.30;99.90;;;;;;6185573;23;20005;-80
2022/12/27 07:19:52;;;;;;;14.43;5.88;;;5.30;99.90;;;;;;6184812;23;20004;-80
2022/12/27 07:22:18;;;;;;;17.60;6.68;;;5.30;99.90;;;;;;6185322;23;20027;-80
2022/12/27 07:24:44;;;;;;;12.38;6.03;;;5.30;99.90;;;;;;6211569;23;20063;-80
2022/12/27 07:27:10;;;;;;;16.63;6.57;;;5.40;99.90;;;;;;6185615;23;20028;-80
2022/12/27 07:29:36;;;;;;;13.30;6.00;;;5.40;99.90;;;;;;6184863;23;20001;-80
2022/12/27 07:32:02;;;;;;;16.30;6.88;;;5.40;99.90;;;;;;6185499;23;20027;-80
2022/12/27 07:34:27;;;;;;;11.60;6.13;;;5.40;99.90;;;;;;6185667;23;20008;-81
2022/12/27 07:36:53;;;;;;;9.65;5.88;;;5.40;99.90;;;;;;6212229;23;20423;-80
2022/12/27 07:39:19;;;;;;;15.23;6.70;;;5.50;99.90;;;;;;6184860;23;20015;-80
2022/12/27 07:41:44;;;;;;;11.52;5.85;;;5.50;99.90;;;;;;6212174;23;20415;-80
2022/12/27 07:44:10;;;;;;;12.13;6.35;;;5.40;99.90;;;;;;6185209;23;20004;-80
2022/12/27 07:46:36;;;;;;;21.05;7.00;;;5.40;99.90;;;;;;6211912;23;20008;-79
2022/12/27 07:49:02;;;;;;;12.00;6.38;;;5.40;99.90;;;;;;6211754;23;20024;-79
2022/12/27 07:51:27;;;;;;;16.48;6.50;;;5.40;99.90;;;;;;6185025;23;20001;-79
2022/12/27 07:53:54;;;;;;;17.85;6.43;;;5.40;99.90;;;;;;6211766;23;20530;-79
2022/12/27 07:56:25;;;;;;;21.08;6.72;;;5.40;99.90;;;;;;6185006;23;20020;-79
2022/12/27 07:58:51;;;;;;;8.35;6.10;;;5.40;99.90;;;;;;6183978;23;20009;-79
2022/12/27 08:01:19;;;;;;;13.02;6.60;;;5.40;99.90;;;;;;6211127;23;20016;-80
2022/12/27 08:03:45;;;;;;;10.95;6.65;;;5.40;99.90;;;;;;6184955;23;20095;-79
2022/12/27 08:06:32;;;;;;;15.63;6.55;;;5.40;99.90;;;;;;6185291;23;20032;-79
2022/12/27 08:09:01;;;;;;;11.18;6.18;;;5.40;99.90;;;;;;6212013;23;20007;-80
2022/12/27 08:11:26;;;;;;;14.43;6.95;;;5.40;99.90;;;;;;6184519;23;20036;-79
2022/12/27 08:13:52;;;;;;;15.30;6.40;;;5.50;99.90;;;;;;6211523;23;20001;-79
2022/12/27 08:16:26;;;;;;;17.98;6.88;;;5.50;99.90;;;;;;6185327;23;20040;-79
2022/12/27 08:18:52;;;;;;;15.88;6.60;;;5.50;99.90;;;;;;6212022;23;20148;-80
2022/12/27 08:21:18;;;;;;;11.77;5.90;;;5.50;99.90;;;;;;6184763;23;20036;-79
2022/12/27 08:23:44;;;;;;;14.13;6.93;;;5.50;99.90;;;;;;6185162;23;20005;-79
2022/12/27 08:26:09;;;;;;;15.77;6.97;;;5.40;99.90;;;;;;6185142;23;20005;-79
2022/12/27 08:28:35;;;;;;;14.43;7.30;;;5.50;99.90;;;;;;6184543;23;20454;-79
2022/12/27 08:31:03;;;;;;;13.73;6.53;;;5.60;99.90;;;;;;6184326;23;20015;-79
2022/12/27 08:33:29;;;;;;;14.13;6.35;;;5.50;99.90;;;;;;6184925;23;20028;-79
2022/12/27 08:35:57;;;;;;;18.67;6.90;;;5.50;99.90;;;;;;6185105;23;20011;-79
2022/12/27 08:38:22;;;;;;;11.98;6.32;;;5.50;99.90;;;;;;6211620;23;20001;-79
2022/12/27 08:40:48;;;;;;;16.13;5.72;;;5.50;99.90;;;;;;6184147;23;20009;-79
2022/12/27 08:43:13;;;;;;;10.75;5.28;;;5.50;99.90;;;;;;6211240;23;20004;-79
2022/12/27 08:45:39;;;;;;;11.95;4.88;;;5.50;99.90;;;;;;6184665;23;20005;-79
2022/12/27 08:48:05;;;;;;;10.43;4.82;;;5.50;99.90;;;;;;6211511;23;20055;-79
2022/12/27 08:50:31;;;;;;;11.35;4.90;;;5.50;99.90;;;;;;6184187;23;20403;-79
2022/12/27 08:52:59;;;;;;;15.90;4.63;;;5.50;99.90;;;;;;6211267;23;19997;-79
2022/12/27 08:55:28;;;;;;;14.10;6.10;;;5.50;99.90;;;;;;6211422;23;20111;-79
2022/12/27 08:58:03;;;;;;;17.08;5.07;;;5.60;99.90;;;;;;6184394;23;20343;-79
2022/12/27 09:00:30;;;;;;;14.65;4.78;;;5.60;99.90;;;;;;6184315;23;20213;-78
2022/12/27 09:02:56;;;;;;;14.50;5.03;;;5.60;99.90;;;;;;6185346;23;20001;-79
2022/12/27 09:05:24;;;;;;;10.35;5.03;;;5.70;99.90;;;;;;6212764;23;19996;-80
2022/12/27 09:07:50;;;;;;;15.20;6.05;;;5.60;99.90;;;;;;6186698;23;20004;-80
2022/12/27 09:10:16;;;;;;;11.98;5.78;;;5.60;99.90;;;;;;6191526;23;20112;-80
2022/12/27 09:12:41;;;;;;;11.02;5.55;;;5.60;99.90;;;;;;6197455;23;20015;-80
2022/12/27 09:15:08;;;;;;;14.15;5.18;;;5.60;99.90;;;;;;6220883;23;20088;-80
2022/12/27 09:17:33;;;;;;;17.08;5.65;;;5.70;99.90;;;;;;6188223;23;20079;-80
2022/12/27 09:20:03;;;;;;;17.73;5.40;;;5.70;99.90;;;;;;6211495;23;20463;-81
2022/12/27 09:22:29;;;;;;;17.23;6.68;;;5.70;99.90;;;;;;6184621;23;20015;-81
2022/12/27 09:24:54;;;;;;;13.23;5.80;;;5.70;99.90;;;;;;6184695;23;20083;-80
2022/12/27 09:27:20;;;;;;;13.90;5.97;;;5.70;99.90;;;;;;6184102;23;20011;-80
2022/12/27 09:29:46;;;;;;;13.85;6.13;;;5.80;99.90;;;;;;6183200;23;20005;-80
2022/12/27 09:32:12;;;;;;;16.15;6.85;;;5.80;99.90;;;;;;6184239;23;20028;-80
2022/12/27 09:34:38;;;;;;;18.55;5.97;;;5.80;99.90;;;;;;6186752;23;20005;-80
2022/12/27 09:37:04;;;;;;;10.57;4.88;;;5.70;99.90;;;;;;6187480;23;20008;-80
2022/12/27 09:39:29;;;;;;;13.70;6.13;;;5.80;99.90;;;;;;6186530;23;20436;-81
2022/12/27 09:42:51;;;;;;;12.10;4.88;;;5.80;99.90;;;;;;6187196;23;20031;-81
2022/12/27 09:45:27;;;;;;;15.07;5.03;;;5.80;99.90;;;;;;6131197;23;20015;-80
2022/12/27 09:48:36;;;;;;;12.40;6.40;;;5.80;99.90;;;;;;6188929;23;20004;-80
2022/12/27 09:51:28;;;;;;;15.57;5.00;;;5.70;99.90;;;;;;6037904;23;20413;-81
2022/12/27 09:54:13;;;;;;;13.85;5.22;;;5.70;99.90;;;;;;6037810;23;19999;-80
2022/12/27 09:56:40;;;;;;;18.15;5.13;;;5.70;99.90;;;;;;6180715;23;20059;-80
2022/12/27 09:59:35;;;;;;;19.15;5.20;;;5.70;99.90;;;;;;6184260;23;20000;-80
2022/12/27 10:02:01;;;;;;;13.57;6.22;;;5.60;99.90;;;;;;6153416;23;20451;-80
2022/12/27 10:04:33;;;;;;;19.25;5.10;;;5.70;99.90;;;;;;6186448;23;20055;-81
2022/12/27 10:07:12;;;;;;;21.95;5.72;;;5.70;99.90;;;;;;6214641;23;20028;-80
2022/12/27 10:10:39;;;;;;;12.02;4.85;;;5.80;99.90;;;;;;6212817;23;20012;-80
2022/12/27 10:13:28;;;;;;;11.68;4.88;;;5.80;99.90;;;;;;6060200;23;20011;-80
2022/12/27 10:16:19;;;;;;;18.45;5.38;;;5.70;99.90;;;;;;6186805;23;20590;-80
2022/12/27 10:18:57;;;;;;;12.20;5.47;;;5.80;99.90;;;;;;6185906;23;20001;-80
2022/12/27 10:21:26;;;;;;;17.60;5.72;;;5.70;99.90;;;;;;6186243;23;20047;-80
2022/12/27 10:24:29;;;;;;;12.50;5.13;;;5.80;99.90;;;;;;6187067;23;20012;-79
2022/12/27 10:26:55;;;;;;;14.43;5.28;;;5.80;99.90;;;;;;6188636;23;20005;-79
2022/12/27 10:29:23;;;;;;;14.95;5.72;;;5.90;99.90;;;;;;6217880;23;20009;-79
2022/12/27 10:31:49;;;;;;;15.63;4.97;;;5.90;99.90;;;;;;6188527;23;20340;-80
2022/12/27 10:34:23;;;;;;;18.17;5.25;;;5.90;99.90;;;;;;6187898;23;20004;-79
2022/12/27 10:36:59;;;;;;;13.25;4.75;;;5.90;99.90;;;;;;6194499;23;20070;-80
2022/12/27 10:39:29;;;;;;;25.88;5.85;;;6.00;99.90;;;;;;6219619;23;20028;-80
2022/12/27 10:42:06;;;;;;;;;;;6.00;99.90;;;;;;6190253;23;20452;-80
2022/12/27 10:44:35;;;;;;;11.80;4.95;;;6.00;99.90;;;;;;6189693;23;19911;-80
2022/12/27 10:47:01;;;;;;;14.18;5.35;;;6.10;99.90;;;;;;6188039;23;20431;-80
2022/12/27 10:49:31;;;;;;;16.08;5.80;;;6.10;99.90;;;;;;6212498;23;20079;-79
2022/12/27 10:52:05;;;;;;;;;;;6.20;99.90;;;;;;6188468;23;19997;-80
2022/12/27 10:54:31;;;;;;;10.63;5.32;;;6.20;99.90;;;;;;6213141;23;19918;-80
2022/12/27 10:57:20;;;;;;;13.13;4.28;;;6.10;99.90;;;;;;6212987;23;20008;-80
2022/12/27 11:00:15;;;;;;;15.52;5.35;;;6.20;99.90;;;;;;6185568;23;20008;-79
2022/12/27 11:02:52;;;;;;;12.90;4.75;;;6.20;99.90;;;;;;6185980;23;20000;-80
2022/12/27 11:05:32;;;;;;;11.02;4.45;;;6.20;99.90;;;;;;6186220;23;20008;-80
2022/12/27 11:08:19;;;;;;;11.43;5.07;;;6.30;99.90;;;;;;6186218;23;20005;-80
2022/12/27 11:11:07;;;;;;;15.52;5.68;;;7.00;99.90;;;;;;6185652;23;20375;-79
2022/12/27 11:13:32;;;;;;;8.13;3.85;;;7.70;99.90;;;;;;6185686;23;20446;-80
2022/12/27 11:15:58;;;;;;;9.57;3.88;;;8.30;99.90;;;;;;6185698;23;20004;-80
2022/12/27 11:18:27;;;;;;;16.75;4.70;;;8.40;99.90;;;;;;6185602;23;20004;-80
2022/12/27 11:20:58;;;;;;;10.77;3.50;;;8.40;99.90;;;;;;6185468;23;20005;-81
2022/12/27 11:23:34;;;;;;;10.60;4.47;;;8.10;99.90;;;;;;6185941;23;20009;-80
2022/12/27 11:26:03;;;;;;;9.85;3.80;;;8.10;99.90;;;;;;6212904;23;20443;-81
2022/12/27 11:28:44;;;;;;;8.55;3.83;;;7.90;99.90;;;;;;6186168;23;20000;-81
2022/12/27 11:31:14;;;;;;;12.40;3.88;;;7.60;99.90;;;;;;6186218;23;20396;-81
2022/12/27 11:33:59;;;;;;;13.98;4.32;;;7.30;99.90;;;;;;6187076;23;20389;-81
2022/12/27 11:36:32;;;;;;;11.68;3.75;;;7.30;99.90;;;;;;6186910;23;20015;-81
2022/12/27 11:38:59;;;;;;;9.32;4.07;;;7.20;99.90;;;;;;6186577;23;20464;-81
2022/12/27 11:41:31;;;;;;;9.65;4.28;;;7.20;99.90;;;;;;6185958;23;20012;-81
2022/12/27 11:44:10;;;;;;;15.18;4.15;;;7.10;99.90;;;;;;6188421;23;20004;-80
2022/12/27 11:47:27;;;;;;;10.40;3.83;;;7.00;99.90;;;;;;6189390;23;20024;-81
2022/12/27 11:50:23;;;;;;;9.32;4.63;;;6.90;99.90;;;;;;6186075;23;20055;-80
2022/12/27 11:53:16;;;;;;;12.32;4.45;;;6.70;99.90;;;;;;6212760;23;20001;-80
2022/12/27 11:56:13;;;;;;;10.85;4.65;;;6.80;99.90;;;;;;6217791;23;20088;-81
2022/12/27 11:58:55;;;;;;;11.52;4.40;;;6.90;99.90;;;;;;6196341;23;20007;-81
2022/12/27 12:01:54;;;;;;;11.20;5.18;;;7.00;99.90;;;;;;6195543;23;20004;-80
2022/12/27 12:04:42;;;;;;;15.57;4.22;;;7.00;99.90;;;;;;6196516;23;20005;-79
2022/12/27 12:07:39;;;;;;;14.90;4.53;;;6.90;99.90;;;;;;6196287;23;20064;-79
2022/12/27 12:10:09;;;;;;;11.85;4.03;;;7.00;99.90;;;;;;6221627;23;20007;-78
2022/12/27 12:13:12;;;;;;;15.00;5.60;;;6.90;99.90;;;;;;6194172;23;20020;-80
2022/12/27 12:16:02;;;;;;;13.13;4.72;;;6.90;99.90;;;;;;6196429;23;20008;-80
2022/12/27 12:18:59;;;;;;;12.40;4.78;;;6.90;99.90;;;;;;6195111;23;20005;-80
2022/12/27 12:22:02;;;;;;;12.40;3.70;;;7.00;99.90;;;;;;6195927;23;20004;-79
2022/12/27 12:24:40;;;;;;;11.98;3.67;;;7.10;99.90;;;;;;6195292;23;20004;-79
2022/12/27 12:27:21;;;;;;;15.55;4.20;;;7.20;99.90;;;;;;6195607;23;20004;-79
2022/12/27 12:30:12;;;;;;;9.70;3.60;;;7.30;99.90;;;;;;6195643;23;20007;-81
2022/12/27 12:33:07;;;;;;;6.45;2.83;;;7.30;99.90;;;;;;6195652;23;20007;-81
2022/12/27 12:36:01;;;;;;;5.80;2.67;;;7.30;99.90;;;;;;6169948;23;20016;-82
2022/12/27 12:38:45;;;;;;;7.72;3.22;;;7.20;99.90;;;;;;6195472;23;20051;-81
2022/12/27 12:41:40;;;;;;;11.10;3.58;;;7.00;99.90;;;;;;6221462;23;20032;-81
2022/12/27 12:44:42;;;;;;;13.50;2.97;;;6.90;99.90;;;;;;6192705;23;20032;-81
2022/12/27 12:47:45;;;;;;;6.43;2.72;;;6.90;99.90;;;;;;6194443;23;20059;-82
2022/12/27 12:50:44;;;;;;;9.23;3.20;;;6.90;99.90;;;;;;6191975;23;20095;-81
2022/12/27 12:53:40;;;;;;;10.95;3.40;;;6.80;99.90;;;;;;6191622;23;20003;-81
2022/12/27 12:56:43;;;;;;;6.22;3.05;;;6.60;99.90;;;;;;6189016;23;20000;-81
2022/12/27 12:59:24;;;;;;;13.77;3.80;;;6.60;99.90;;;;;;6183704;23;20076;-81
2022/12/27 13:02:42;;;;;;;7.30;2.83;;;6.50;99.90;;;;;;6220656;23;20063;-81
2022/12/27 13:05:30;;;;;;;9.60;3.13;;;6.50;99.90;;;;;;6196268;23;20005;-82
2022/12/27 13:08:15;;;;;;;8.68;3.20;;;6.50;99.90;;;;;;6192340;23;20040;-80
2022/12/27 13:10:56;;;;;;;10.02;3.53;;;6.50;99.90;;;;;;6194689;23;20009;-81
2022/12/27 13:13:54;;;;;;;9.52;3.10;;;6.50;99.90;;;;;;6196315;23;20327;-80
2022/12/27 13:16:48;;;;;;;8.65;4.18;;;6.50;99.90;;;;;;6192747;23;20011;-82
2022/12/27 13:19:50;;;;;;;8.40;4.00;;;6.60;99.90;;;;;;6216525;23;20005;-81
2022/12/27 13:22:22;;;;;;;9.52;3.75;;;6.60;99.90;;;;;;6215824;23;20011;-81
2022/12/27 13:28:51;;;;;;;15.20;4.00;;;6.60;99.90;;;;;;6202975;23;20467;-81
2022/12/27 13:31:30;;;;;;;18.13;3.83;;;6.50;99.90;;;;;;6190046;23;19996;-80
2022/12/27 13:34:30;;;;;;;13.20;4.53;;;6.50;99.90;;;;;;6196590;23;20068;-81
2022/12/27 13:37:08;;;;;;;10.88;4.65;;;6.40;99.90;;;;;;6202883;23;20000;-81
2022/12/27 13:40:05;;;;;;;9.68;3.58;;;6.40;99.90;;;;;;6194609;23;20031;-80
2022/12/27 13:42:43;;;;;;;16.20;3.85;;;6.40;99.90;;;;;;6197172;23;20008;-80
2022/12/27 13:45:17;;;;;;;13.18;4.13;;;6.30;99.90;;;;;;6220691;23;20313;-80
2022/12/27 13:48:08;;;;;;;14.20;4.70;;;6.30;99.90;;;;;;6193197;23;20387;-80
2022/12/27 13:50:43;;;;;;;14.05;3.50;;;6.30;99.90;;;;;;6218914;23;20011;-81
2022/12/27 13:53:18;;;;;;;11.30;5.38;;;6.30;99.90;;;;;;6193004;23;20451;-81
2022/12/27 13:56:20;;;;;;;10.82;3.92;;;6.30;99.90;;;;;;6223824;23;20075;-81
2022/12/27 13:59:11;;;;;;;13.18;3.58;;;6.40;99.90;;;;;;6198712;23;20028;-80
2022/12/27 14:02:05;;;;;;;12.88;4.20;;;6.40;99.90;;;;;;6225479;23;20019;-80
2022/12/27 14:04:59;;;;;;;8.27;3.63;;;6.40;99.90;;;;;;6230525;23;20483;-79
2022/12/27 14:07:48;;;;;;;13.80;4.88;;;6.40;99.90;;;;;;6201091;23;20007;-79
2022/12/27 14:10:32;;;;;;;7.05;3.17;;;6.40;99.90;;;;;;6225573;23;20005;-80
2022/12/27 14:13:05;;;;;;;9.45;3.38;;;6.40;99.90;;;;;;6201681;23;20027;-79
2022/12/27 14:15:59;;;;;;;10.48;3.80;;;6.40;99.90;;;;;;6201916;23;20001;-79
2022/12/27 14:18:38;;;;;;;14.65;4.28;;;6.40;99.90;;;;;;6231632;23;20028;-80
2022/12/27 14:21:28;;;;;;;12.02;4.20;;;6.30;99.90;;;;;;6204661;23;20024;-80
2022/12/27 14:24:14;;;;;;;12.20;3.75;;;6.30;99.90;;;;;;6203598;23;20008;-80
2022/12/27 14:27:13;;;;;;;11.88;4.32;;;6.30;99.90;;;;;;6181181;23;20163;-80
2022/12/27 14:30:04;;;;;;;13.10;3.95;;;6.30;99.90;;;;;;6173861;23;20001;-79
2022/12/27 14:32:42;;;;;;;15.55;4.00;;;6.30;99.90;;;;;;6205638;23;20004;-79
2022/12/27 14:35:46;;;;;;;13.43;3.50;;;6.20;99.90;;;;;;6205679;23;20007;-80
2022/12/27 14:38:44;;;;;;;11.18;3.95;;;6.20;99.90;;;;;;6200613;23;20366;-79
2022/12/27 14:41:28;;;;;;;10.40;4.05;;;6.20;99.90;;;;;;6191236;23;20016;-78
2022/12/27 14:44:15;;;;;;;7.47;4.28;;;6.20;99.90;;;;;;6228832;23;20011;-79
2022/12/27 14:47:15;;;;;;;10.32;4.65;;;6.20;99.90;;;;;;6202343;23;20000;-78
2022/12/27 14:50:01;;;;;;;9.57;3.92;;;6.30;99.90;;;;;;6228458;23;20310;-80
2022/12/27 14:52:54;;;;;;;13.88;5.03;;;6.20;99.90;;;;;;6200489;23;20001;-81
2022/12/27 14:55:36;;;;;;;17.23;6.22;;;6.20;99.90;;;;;;6202672;23;20010;-80
2022/12/27 14:58:23;;;;;;;13.48;6.10;;;6.20;99.90;;;;;;6228967;23;20004;-80
2022/12/27 15:01:04;;;;;;;12.25;5.93;;;6.10;99.90;;;;;;6227258;23;20035;-78
2022/12/27 15:03:42;;;;;;;;;;;6.10;99.90;;;;;;6202994;23;20013;-77
2022/12/27 15:06:22;;;;;;;13.93;6.28;;;6.00;99.90;;;;;;6191516;23;19903;-78
2022/12/27 15:09:26;;;;;;;13.10;7.10;;;6.00;99.90;;;;;;6187939;23;20051;-78
2022/12/27 15:12:07;;;;;;;12.18;6.65;;;6.00;99.90;;;;;;6165284;23;20049;-79
2022/12/27 15:14:56;;;;;;;16.75;6.88;;;5.90;99.90;;;;;;6188250;23;20078;-79